createdAt,value
2017-04-17T00:00:55.936Z,5.20
2017-04-17T00:01:55.157Z,5.10
2017-04-17T00:02:54.372Z,5.20
2017-04-17T00:03:53.579Z,5.10
2017-04-17T00:04:52.780Z,5.10
2017-04-17T00:05:51.972Z,5.10
2017-04-17T00:06:51.157Z,5.10
2017-04-17T00:07:50.355Z,5.10
2017-04-17T00:08:49.537Z,5.10
2017-04-17T00:09:48.717Z,5.10
2017-04-17T00:10:47.894Z,5.10
2017-04-17T00:11:47.082Z,5.10
2017-04-17T00:12:47.004Z,5.10
2017-04-17T00:13:46.216Z,5.10
2017-04-17T00:14:45.401Z,5.10
2017-04-17T00:15:44.576Z,5.10
2017-04-17T00:16:43.753Z,5.10
2017-04-17T00:17:42.981Z,5.10
2017-04-17T00:18:42.212Z,5.10
2017-04-17T00:19:42.163Z,5.10
2017-04-17T00:20:41.355Z,5.10
2017-04-17T00:21:40.537Z,5.10
2017-04-17T00:22:39.716Z,5.10
2017-04-17T00:23:38.915Z,5.10
2017-04-17T00:24:38.147Z,5.10
2017-04-17T00:25:37.368Z,5.20
2017-04-17T00:26:36.585Z,5.20
2017-04-17T00:27:35.796Z,5.10
2017-04-17T00:28:34.980Z,5.20
2017-04-17T00:29:34.252Z,5.20
2017-04-17T00:30:33.431Z,5.20
2017-04-17T00:31:32.641Z,5.20
2017-04-17T00:32:32.581Z,5.20
2017-04-17T00:33:31.758Z,5.20
2017-04-17T00:34:30.944Z,5.20
2017-04-17T00:35:30.124Z,5.20
2017-04-17T00:36:29.568Z,5.20
2017-04-17T00:37:28.799Z,5.20
2017-04-17T00:38:27.980Z,5.20
2017-04-17T00:39:27.159Z,5.20
2017-04-17T00:40:26.369Z,5.20
2017-04-17T00:41:25.548Z,5.20
2017-04-17T00:42:24.725Z,5.20
2017-04-17T00:43:23.936Z,5.20
2017-04-17T00:44:23.116Z,5.20
2017-04-17T00:45:22.320Z,5.20
2017-04-17T00:46:21.488Z,5.20
2017-04-17T00:47:20.664Z,5.20
2017-04-17T00:48:19.880Z,5.20
2017-04-17T00:49:19.096Z,5.20
2017-04-17T00:50:18.271Z,5.20
2017-04-17T00:51:17.457Z,5.20
2017-04-17T00:52:16.649Z,5.10
2017-04-17T00:53:15.824Z,5.10
2017-04-17T00:54:15.009Z,5.10
2017-04-17T00:55:14.209Z,5.10
2017-04-17T00:56:13.389Z,5.10
2017-04-17T00:57:12.566Z,5.00
2017-04-17T00:58:11.762Z,5.00
2017-04-17T00:59:10.945Z,5.00
2017-04-17T01:00:10.139Z,5.00
2017-04-17T01:01:09.428Z,5.00
2017-04-17T01:02:08.661Z,4.90
2017-04-17T01:03:07.861Z,4.90
2017-04-17T01:04:07.048Z,4.90
2017-04-17T01:05:06.219Z,4.80
2017-04-17T01:06:05.427Z,4.80
2017-04-17T01:07:04.690Z,4.80
2017-04-17T01:08:03.892Z,4.70
2017-04-17T01:09:03.941Z,4.70
2017-04-17T01:10:03.136Z,4.70
2017-04-17T01:11:02.364Z,4.70
2017-04-17T01:12:01.530Z,4.60
2017-04-17T01:13:00.983Z,4.60
2017-04-17T01:14:00.170Z,4.60
2017-04-17T01:14:59.349Z,4.50
2017-04-17T01:15:58.543Z,4.50
2017-04-17T01:16:57.738Z,4.50
2017-04-17T01:17:56.909Z,4.40
2017-04-17T01:18:56.124Z,4.40
2017-04-17T01:19:55.306Z,4.30
2017-04-17T01:20:54.481Z,4.20
2017-04-17T01:21:53.700Z,4.20
2017-04-17T01:22:52.868Z,4.10
2017-04-17T01:23:52.781Z,4.00
2017-04-17T01:24:52.782Z,4.00
2017-04-17T01:25:52.693Z,4.00
2017-04-17T01:26:51.846Z,4.00
2017-04-17T01:27:51.042Z,3.90
2017-04-17T01:28:50.193Z,3.90
2017-04-17T01:29:49.355Z,3.90
2017-04-17T01:30:48.556Z,3.90
2017-04-17T01:31:47.769Z,3.80
2017-04-17T01:32:47.673Z,3.80
2017-04-17T01:33:47.581Z,3.80
2017-04-17T01:34:47.529Z,3.80
2017-04-17T01:35:46.696Z,3.80
2017-04-17T01:36:45.885Z,3.70
2017-04-17T01:37:45.063Z,3.80
2017-04-17T01:38:44.253Z,3.80
2017-04-17T01:39:43.415Z,3.80
2017-04-17T01:40:42.568Z,3.70
2017-04-17T01:41:41.704Z,3.70
2017-04-17T01:42:40.897Z,3.60
2017-04-17T01:43:40.053Z,3.60
2017-04-17T01:44:39.244Z,3.50
2017-04-17T01:45:38.435Z,3.50
2017-04-17T01:46:37.585Z,3.40
2017-04-17T01:47:36.761Z,3.40
2017-04-17T01:48:36.177Z,3.30
2017-04-17T01:49:36.082Z,3.30
2017-04-17T01:50:35.260Z,3.30
2017-04-17T01:51:34.418Z,3.30
2017-04-17T01:52:33.623Z,3.30
2017-04-17T01:53:32.777Z,3.20
2017-04-17T01:54:31.972Z,3.20
2017-04-17T01:55:31.120Z,3.20
2017-04-17T01:56:30.267Z,3.20
2017-04-17T01:57:29.428Z,3.20
2017-04-17T01:58:28.580Z,3.20
2017-04-17T01:59:27.741Z,3.10
2017-04-17T02:00:26.937Z,3.10
2017-04-17T02:01:26.088Z,3.10
2017-04-17T02:02:25.240Z,3.10
2017-04-17T02:03:24.408Z,3.00
2017-04-17T02:04:23.856Z,3.00
2017-04-17T02:05:23.064Z,3.00
2017-04-17T02:06:22.252Z,3.00
2017-04-17T02:07:22.137Z,3.00
2017-04-17T02:08:21.338Z,3.00
2017-04-17T02:09:20.535Z,3.00
2017-04-17T02:10:19.688Z,3.00
2017-04-17T02:11:18.884Z,3.00
2017-04-17T02:12:18.433Z,3.00
2017-04-17T02:13:17.618Z,3.00
2017-04-17T02:14:16.821Z,3.00
2017-04-17T02:15:15.996Z,3.00
2017-04-17T02:16:15.200Z,3.00
2017-04-17T02:17:14.390Z,3.00
2017-04-17T02:18:13.601Z,3.00
2017-04-17T02:19:12.789Z,3.00
2017-04-17T02:20:11.951Z,3.00
2017-04-17T02:21:11.108Z,3.00
2017-04-17T02:22:10.268Z,3.00
2017-04-17T02:23:09.436Z,3.00
2017-04-17T02:24:08.612Z,3.00
2017-04-17T02:25:07.808Z,2.90
2017-04-17T02:26:06.998Z,2.90
2017-04-17T02:27:06.171Z,2.90
2017-04-17T02:28:05.340Z,2.90
2017-04-17T02:29:04.505Z,2.90
2017-04-17T02:30:03.704Z,2.90
2017-04-17T02:31:03.138Z,2.90
2017-04-17T02:32:03.024Z,2.90
2017-04-17T02:33:02.185Z,2.90
2017-04-17T02:34:01.348Z,2.90
2017-04-17T02:35:00.500Z,2.90
2017-04-17T02:35:59.681Z,2.80
2017-04-17T02:36:59.568Z,2.80
2017-04-17T02:37:58.725Z,2.80
2017-04-17T02:38:57.918Z,2.80
2017-04-17T02:39:57.825Z,2.80
2017-04-17T02:40:56.973Z,2.80
2017-04-17T02:41:56.380Z,2.80
2017-04-17T02:42:55.524Z,2.70
2017-04-17T02:43:54.680Z,2.70
2017-04-17T02:44:53.840Z,2.70
2017-04-17T02:45:52.992Z,2.70
2017-04-17T02:46:52.144Z,2.70
2017-04-17T02:48:50.792Z,2.60
2017-04-17T02:49:49.944Z,2.60
2017-04-17T02:50:49.108Z,2.60
2017-04-17T02:51:48.284Z,2.60
2017-04-17T02:52:48.374Z,2.60
2017-04-17T02:53:47.564Z,2.60
2017-04-17T02:54:46.734Z,2.60
2017-04-17T02:55:45.896Z,2.60
2017-04-17T02:56:45.049Z,2.60
2017-04-17T02:57:44.213Z,2.60
2017-04-17T02:58:43.380Z,2.60
2017-04-17T02:59:42.563Z,2.60
2017-04-17T03:00:41.715Z,2.60
2017-04-17T03:01:40.873Z,2.60
2017-04-17T03:02:40.056Z,2.60
2017-04-17T03:03:39.213Z,2.60
2017-04-17T03:04:39.156Z,2.60
2017-04-17T03:05:38.369Z,2.60
2017-04-17T03:06:37.516Z,2.60
2017-04-17T03:07:36.703Z,2.60
2017-04-17T03:08:35.884Z,2.60
2017-04-17T03:09:35.041Z,2.60
2017-04-17T03:10:34.973Z,2.50
2017-04-17T03:11:34.174Z,2.50
2017-04-17T03:12:33.381Z,2.50
2017-04-17T03:13:32.609Z,2.50
2017-04-17T03:14:31.781Z,2.50
2017-04-17T03:15:30.960Z,2.40
2017-04-17T03:16:30.136Z,2.40
2017-04-17T03:17:29.639Z,2.40
2017-04-17T03:18:28.815Z,2.50
2017-04-17T03:19:28.019Z,2.40
2017-04-17T03:20:27.204Z,2.40
2017-04-17T03:21:26.372Z,2.40
2017-04-17T03:22:25.552Z,2.50
2017-04-17T03:23:24.762Z,2.50
2017-04-17T03:24:23.932Z,2.50
2017-04-17T03:25:23.109Z,2.50
2017-04-17T03:26:22.260Z,2.50
2017-04-17T03:27:21.461Z,2.50
2017-04-17T03:28:20.621Z,2.50
2017-04-17T03:29:20.545Z,2.50
2017-04-17T03:30:19.696Z,2.50
2017-04-17T03:31:18.875Z,2.50
2017-04-17T03:32:18.038Z,2.50
2017-04-17T03:33:17.216Z,2.60
2017-04-17T03:34:16.381Z,2.60
2017-04-17T03:35:15.568Z,2.60
2017-04-17T03:36:14.744Z,2.60
2017-04-17T03:37:13.904Z,2.60
2017-04-17T03:38:13.808Z,2.60
2017-04-17T03:39:12.968Z,2.60
2017-04-17T03:40:12.121Z,2.60
2017-04-17T03:41:11.324Z,2.70
2017-04-17T03:42:10.496Z,2.70
2017-04-17T03:43:09.653Z,2.70
2017-04-17T03:44:08.824Z,2.70
2017-04-17T03:45:08.044Z,2.70
2017-04-17T03:46:07.209Z,2.70
2017-04-17T03:47:06.399Z,2.70
2017-04-17T03:48:05.570Z,2.60
2017-04-17T03:49:05.485Z,2.60
2017-04-17T03:50:04.665Z,2.60
2017-04-17T03:51:04.526Z,2.60
2017-04-17T03:52:03.690Z,2.70
2017-04-17T03:53:03.168Z,2.70
2017-04-17T03:54:02.325Z,2.70
2017-04-17T03:55:01.473Z,2.70
2017-04-17T03:56:00.644Z,2.70
2017-04-17T03:56:59.813Z,2.80
2017-04-17T03:57:58.973Z,2.80
2017-04-17T03:58:58.168Z,2.80
2017-04-17T03:59:57.337Z,2.80
2017-04-17T04:00:56.848Z,2.90
2017-04-17T04:01:56.008Z,3.00
2017-04-17T04:02:55.173Z,3.10
2017-04-17T04:03:54.335Z,3.10
2017-04-17T04:04:53.522Z,3.20
2017-04-17T04:05:52.683Z,3.20
2017-04-17T04:06:51.832Z,3.30
2017-04-17T04:07:51.016Z,3.30
2017-04-17T04:08:50.167Z,3.30
2017-04-17T04:09:49.319Z,3.40
2017-04-17T04:10:48.821Z,3.40
2017-04-17T04:11:47.976Z,3.40
2017-04-17T04:12:47.128Z,3.40
2017-04-17T04:13:46.286Z,3.40
2017-04-17T04:14:45.449Z,3.50
2017-04-17T04:15:44.618Z,3.50
2017-04-17T04:16:43.812Z,3.50
2017-04-17T04:17:42.976Z,3.50
2017-04-17T04:18:42.140Z,3.50
2017-04-17T04:19:41.296Z,3.50
2017-04-17T04:20:40.464Z,3.50
2017-04-17T04:21:40.372Z,3.50
2017-04-17T04:22:39.560Z,3.50
2017-04-17T04:23:38.733Z,3.50
2017-04-17T04:24:37.897Z,3.50
2017-04-17T04:25:37.837Z,3.50
2017-04-17T04:26:37.014Z,3.50
2017-04-17T04:27:36.219Z,3.50
2017-04-17T04:28:35.740Z,3.60
2017-04-17T04:29:35.653Z,3.50
2017-04-17T04:30:34.855Z,3.50
2017-04-17T04:31:34.038Z,3.60
2017-04-17T04:32:33.568Z,3.50
2017-04-17T04:33:32.758Z,3.50
2017-04-17T04:34:32.177Z,3.50
2017-04-17T04:35:31.399Z,3.50
2017-04-17T04:36:30.576Z,3.50
2017-04-17T04:37:29.766Z,3.50
2017-04-17T04:38:28.997Z,3.50
2017-04-17T04:39:28.167Z,3.50
2017-04-17T04:40:27.367Z,3.50
2017-04-17T04:41:26.552Z,3.50
2017-04-17T04:42:25.752Z,3.50
2017-04-17T04:43:24.984Z,3.50
2017-04-17T04:44:24.173Z,3.50
2017-04-17T04:45:23.363Z,3.50
2017-04-17T04:46:22.824Z,3.50
2017-04-17T04:47:22.024Z,3.50
2017-04-17T04:48:21.203Z,3.50
2017-04-17T04:49:20.383Z,3.50
2017-04-17T04:50:19.584Z,3.60
2017-04-17T04:51:18.769Z,3.50
2017-04-17T04:52:18.044Z,3.50
2017-04-17T04:53:17.241Z,3.50
2017-04-17T04:54:16.413Z,3.50
2017-04-17T04:55:15.597Z,3.50
2017-04-17T04:56:14.853Z,3.50
2017-04-17T04:57:14.037Z,3.50
2017-04-17T04:58:13.252Z,3.50
2017-04-17T04:59:12.435Z,3.50
2017-04-17T05:00:12.376Z,3.50
2017-04-17T05:01:12.367Z,3.40
2017-04-17T05:02:11.546Z,3.50
2017-04-17T05:03:10.722Z,3.50
2017-04-17T05:04:09.938Z,3.50
2017-04-17T05:05:09.861Z,3.40
2017-04-17T05:06:09.132Z,3.50
2017-04-17T05:07:08.312Z,3.50
2017-04-17T05:08:07.484Z,3.40
2017-04-17T05:09:06.662Z,3.40
2017-04-17T05:10:05.868Z,3.40
2017-04-17T05:12:04.516Z,3.40
2017-04-17T05:13:03.701Z,3.40
2017-04-17T05:14:03.668Z,3.40
2017-04-17T05:15:02.845Z,3.40
2017-04-17T05:16:02.058Z,3.40
2017-04-17T05:17:01.234Z,3.40
2017-04-17T05:18:00.424Z,3.40
2017-04-17T05:18:59.625Z,3.40
2017-04-17T05:19:58.805Z,3.40
2017-04-17T05:20:57.984Z,3.40
2017-04-17T05:21:57.558Z,3.30
2017-04-17T05:22:57.472Z,3.30
2017-04-17T05:23:56.654Z,3.30
2017-04-17T05:24:55.843Z,3.30
2017-04-17T05:25:55.093Z,3.30
2017-04-17T05:26:54.329Z,3.30
2017-04-17T05:27:53.540Z,3.40
2017-04-17T05:28:52.708Z,3.30
2017-04-17T05:29:51.886Z,3.30
2017-04-17T05:30:51.066Z,3.40
2017-04-17T05:31:50.257Z,3.30
2017-04-17T05:32:49.436Z,3.30
2017-04-17T05:33:48.645Z,3.30
2017-04-17T05:34:47.905Z,3.30
2017-04-17T05:35:47.083Z,3.20
2017-04-17T05:36:46.261Z,3.20
2017-04-17T05:37:46.427Z,3.20
2017-04-17T05:38:46.393Z,3.20
2017-04-17T05:39:45.821Z,3.20
2017-04-17T05:40:44.993Z,3.20
2017-04-17T05:41:44.237Z,3.20
2017-04-17T05:42:44.162Z,3.20
2017-04-17T05:43:43.329Z,3.30
2017-04-17T05:44:42.501Z,3.20
2017-04-17T05:45:41.735Z,3.30
2017-04-17T05:46:40.924Z,3.30
2017-04-17T05:47:40.105Z,3.30
2017-04-17T05:48:39.273Z,3.30
2017-04-17T05:49:38.446Z,3.30
2017-04-17T05:50:37.627Z,3.40
2017-04-17T05:51:36.827Z,3.40
2017-04-17T05:52:36.012Z,3.50
2017-04-17T05:53:35.225Z,3.50
2017-04-17T05:54:34.405Z,3.50
2017-04-17T05:55:33.580Z,3.60
2017-04-17T05:56:32.761Z,3.60
2017-04-17T05:57:32.712Z,3.60
2017-04-17T05:58:31.880Z,3.70
2017-04-17T05:59:31.065Z,3.60
2017-04-17T06:00:30.284Z,3.70
2017-04-17T06:01:29.460Z,3.70
2017-04-17T06:02:28.632Z,3.70
2017-04-17T06:03:28.133Z,3.70
2017-04-17T06:04:27.341Z,3.70
2017-04-17T06:05:26.523Z,3.80
2017-04-17T06:06:25.692Z,3.80
2017-04-17T06:07:24.892Z,3.90
2017-04-17T06:08:24.072Z,3.90
2017-04-17T06:09:23.285Z,3.80
2017-04-17T06:10:22.461Z,3.80
2017-04-17T06:11:21.697Z,3.80
2017-04-17T06:12:20.863Z,3.80
2017-04-17T06:13:20.781Z,3.80
2017-04-17T06:14:20.690Z,3.80
2017-04-17T06:15:20.639Z,3.90
2017-04-17T06:16:19.861Z,3.90
2017-04-17T06:17:19.048Z,3.90
2017-04-17T06:18:18.231Z,3.90
2017-04-17T06:19:17.409Z,3.90
2017-04-17T06:20:16.587Z,3.90
2017-04-17T06:21:16.050Z,4.00
2017-04-17T06:22:15.235Z,3.90
2017-04-17T06:23:14.407Z,3.90
2017-04-17T06:24:13.589Z,4.00
2017-04-17T06:25:12.752Z,4.00
2017-04-17T06:26:11.961Z,3.90
2017-04-17T06:27:11.911Z,3.90
2017-04-17T06:28:11.063Z,3.90
2017-04-17T06:29:10.221Z,3.90
2017-04-17T06:30:09.376Z,3.90
2017-04-17T06:31:08.531Z,3.80
2017-04-17T06:32:07.695Z,3.80
2017-04-17T06:33:06.885Z,3.70
2017-04-17T06:34:06.042Z,3.70
2017-04-17T06:35:05.234Z,3.70
2017-04-17T06:36:04.403Z,3.60
2017-04-17T06:37:03.573Z,3.70
2017-04-17T06:38:02.736Z,3.60
2017-04-17T06:39:02.181Z,3.40
2017-04-17T06:40:01.331Z,3.30
2017-04-17T06:41:00.488Z,3.30
2017-04-17T06:42:00.380Z,3.10
2017-04-17T06:42:59.527Z,3.10
2017-04-17T06:43:58.682Z,3.10
2017-04-17T06:44:57.883Z,3.10
2017-04-17T06:45:57.060Z,3.00
2017-04-17T06:46:56.225Z,2.90
2017-04-17T06:47:55.392Z,2.90
2017-04-17T06:48:55.317Z,2.90
2017-04-17T06:49:55.246Z,2.80
2017-04-17T06:50:54.477Z,2.80
2017-04-17T06:51:53.636Z,2.80
2017-04-17T06:52:52.797Z,2.80
2017-04-17T06:53:52.693Z,2.70
2017-04-17T06:54:51.849Z,2.70
2017-04-17T06:55:51.001Z,2.60
2017-04-17T06:56:50.227Z,2.60
2017-04-17T06:57:50.120Z,2.60
2017-04-17T06:58:49.273Z,2.60
2017-04-17T06:59:48.424Z,2.60
2017-04-17T07:00:47.621Z,2.50
2017-04-17T07:01:46.777Z,2.50
2017-04-17T07:02:48.624Z,2.50
2017-04-17T07:03:47.784Z,2.50
2017-04-17T07:04:46.952Z,2.50
2017-04-17T07:05:46.865Z,2.40
2017-04-17T07:06:46.029Z,2.40
2017-04-17T07:07:45.212Z,2.40
2017-04-17T07:08:44.412Z,2.30
2017-04-17T07:09:43.572Z,2.40
2017-04-17T07:10:42.731Z,2.40
2017-04-17T07:11:41.892Z,2.40
2017-04-17T07:12:41.121Z,2.40
2017-04-17T07:13:40.264Z,2.40
2017-04-17T07:14:39.445Z,2.40
2017-04-17T07:15:38.600Z,2.40
2017-04-17T07:16:37.757Z,2.40
2017-04-17T07:17:36.908Z,2.40
2017-04-17T07:18:36.825Z,2.30
2017-04-17T07:19:35.989Z,2.40
2017-04-17T07:20:35.189Z,2.30
2017-04-17T07:21:35.084Z,2.30
2017-04-17T07:22:34.235Z,2.30
2017-04-17T07:23:33.397Z,2.30
2017-04-17T07:24:32.604Z,2.30
2017-04-17T07:25:31.768Z,2.30
2017-04-17T07:26:30.980Z,2.30
2017-04-17T07:27:30.136Z,2.30
2017-04-17T07:28:29.292Z,2.20
2017-04-17T07:29:28.441Z,2.20
2017-04-17T07:30:27.596Z,2.20
2017-04-17T07:31:26.752Z,2.20
2017-04-17T07:32:25.931Z,2.10
2017-04-17T07:33:25.080Z,2.10
2017-04-17T07:34:24.242Z,2.10
2017-04-17T07:35:23.393Z,2.10
2017-04-17T07:36:22.555Z,2.00
2017-04-17T07:37:21.713Z,2.00
2017-04-17T07:38:20.927Z,2.00
2017-04-17T07:39:20.097Z,2.00
2017-04-17T07:40:19.276Z,1.90
2017-04-17T07:41:18.428Z,2.00
2017-04-17T07:42:17.569Z,1.90
2017-04-17T07:43:16.764Z,2.00
2017-04-17T07:44:15.935Z,1.90
2017-04-17T07:45:15.104Z,1.90
2017-04-17T07:46:14.261Z,1.90
2017-04-17T07:47:13.437Z,1.90
2017-04-17T07:48:12.589Z,1.90
2017-04-17T07:49:11.744Z,1.90
2017-04-17T07:50:10.948Z,1.90
2017-04-17T07:51:10.123Z,1.90
2017-04-17T07:52:09.277Z,1.90
2017-04-17T07:53:08.709Z,1.90
2017-04-17T07:54:07.865Z,1.90
2017-04-17T07:55:07.034Z,1.90
2017-04-17T07:56:06.225Z,1.90
2017-04-17T07:57:05.388Z,1.90
2017-04-17T07:58:04.537Z,2.00
2017-04-17T07:59:03.706Z,2.00
2017-04-17T08:00:02.875Z,1.90
2017-04-17T08:01:02.035Z,2.00
2017-04-17T08:02:01.224Z,2.00
2017-04-17T08:03:00.440Z,2.00
2017-04-17T08:03:59.598Z,2.00
2017-04-17T08:04:58.764Z,2.00
2017-04-17T08:05:57.922Z,2.10
2017-04-17T08:06:57.064Z,2.10
2017-04-17T08:07:56.242Z,2.10
2017-04-17T08:08:55.448Z,2.10
2017-04-17T08:09:54.613Z,2.10
2017-04-17T08:10:53.776Z,2.20
2017-04-17T08:11:52.921Z,2.10
2017-04-17T08:12:52.076Z,2.20
2017-04-17T08:13:51.264Z,2.20
2017-04-17T08:14:50.411Z,2.20
2017-04-17T08:15:50.312Z,2.20
2017-04-17T08:16:49.568Z,2.20
2017-04-17T08:17:48.717Z,2.20
2017-04-17T08:18:47.868Z,2.20
2017-04-17T08:19:47.042Z,2.20
2017-04-17T08:20:46.202Z,2.20
2017-04-17T08:21:45.352Z,2.30
2017-04-17T08:22:44.753Z,2.30
2017-04-17T08:23:43.917Z,2.30
2017-04-17T08:24:43.824Z,2.30
2017-04-17T08:25:43.809Z,2.30
2017-04-17T08:26:43.056Z,2.30
2017-04-17T08:27:42.248Z,2.30
2017-04-17T08:28:41.432Z,2.30
2017-04-17T08:29:40.628Z,2.30
2017-04-17T08:30:39.843Z,2.30
2017-04-17T08:31:39.041Z,2.30
2017-04-17T08:32:38.225Z,2.30
2017-04-17T08:33:37.402Z,2.30
2017-04-17T08:34:36.586Z,2.30
2017-04-17T08:35:35.768Z,2.30
2017-04-17T08:36:34.944Z,2.30
2017-04-17T08:37:34.153Z,2.30
2017-04-17T08:38:33.433Z,2.40
2017-04-17T08:39:32.605Z,2.40
2017-04-17T08:40:31.776Z,2.40
2017-04-17T08:41:30.941Z,2.40
2017-04-17T08:42:30.135Z,2.50
2017-04-17T08:43:29.363Z,2.50
2017-04-17T08:44:28.532Z,2.50
2017-04-17T08:45:27.708Z,2.50
2017-04-17T08:46:27.620Z,2.60
2017-04-17T08:47:26.791Z,2.70
2017-04-17T08:48:26.708Z,2.70
2017-04-17T08:49:26.653Z,2.80
2017-04-17T08:50:25.834Z,2.80
2017-04-17T08:51:25.013Z,2.90
2017-04-17T08:52:24.185Z,2.90
2017-04-17T08:53:23.365Z,2.90
2017-04-17T08:54:23.284Z,3.00
2017-04-17T08:55:22.481Z,3.00
2017-04-17T08:56:21.656Z,3.00
2017-04-17T08:57:20.056Z,3.00
2017-04-17T08:58:19.225Z,3.10
2017-04-17T08:59:18.404Z,3.10
2017-04-17T09:00:17.613Z,3.10
2017-04-17T09:01:16.815Z,3.20
2017-04-17T09:02:15.986Z,3.20
2017-04-17T09:03:15.159Z,3.20
2017-04-17T09:04:14.332Z,3.20
2017-04-17T09:05:13.517Z,3.30
2017-04-17T09:06:12.696Z,3.40
2017-04-17T09:07:12.628Z,3.40
2017-04-17T09:08:11.801Z,3.40
2017-04-17T09:09:10.984Z,3.40
2017-04-17T09:10:10.166Z,3.50
2017-04-17T09:11:10.081Z,3.40
2017-04-17T09:12:10.001Z,3.40
2017-04-17T09:13:09.223Z,3.50
2017-04-17T09:14:08.396Z,3.40
2017-04-17T09:15:07.562Z,3.40
2017-04-17T09:16:06.729Z,3.40
2017-04-17T09:17:05.908Z,3.40
2017-04-17T09:18:05.829Z,3.40
2017-04-17T09:19:05.035Z,3.40
2017-04-17T09:20:04.219Z,3.40
2017-04-17T09:21:03.404Z,3.40
2017-04-17T09:22:02.564Z,3.40
2017-04-17T09:23:02.479Z,3.40
2017-04-17T09:24:02.395Z,3.40
2017-04-17T09:25:01.644Z,3.50
2017-04-17T09:26:00.845Z,3.50
2017-04-17T09:27:00.011Z,3.50
2017-04-17T09:27:59.184Z,3.60
2017-04-17T09:28:58.360Z,3.60
2017-04-17T09:29:57.541Z,3.60
2017-04-17T09:30:56.736Z,3.60
2017-04-17T09:31:55.922Z,3.50
2017-04-17T09:32:55.090Z,3.50
2017-04-17T09:33:54.256Z,3.50
2017-04-17T09:34:54.172Z,3.40
2017-04-17T09:35:53.344Z,3.50
2017-04-17T09:36:52.537Z,3.50
2017-04-17T09:37:51.726Z,3.50
2017-04-17T09:38:50.901Z,3.50
2017-04-17T09:39:50.119Z,3.50
2017-04-17T09:40:49.276Z,3.50
2017-04-17T09:41:48.444Z,3.50
2017-04-17T09:42:47.651Z,3.50
2017-04-17T09:43:46.823Z,3.50
2017-04-17T09:44:45.994Z,3.50
2017-04-17T09:45:45.168Z,3.50
2017-04-17T09:46:44.344Z,3.50
2017-04-17T09:47:43.526Z,3.50
2017-04-17T09:48:42.728Z,3.50
2017-04-17T09:49:41.893Z,3.50
2017-04-17T09:50:41.081Z,3.40
2017-04-17T09:51:40.244Z,3.40
2017-04-17T09:52:39.412Z,3.50
2017-04-17T09:53:38.585Z,3.60
2017-04-17T09:54:37.803Z,3.60
2017-04-17T09:55:36.985Z,3.70
2017-04-17T09:56:36.163Z,3.80
2017-04-17T09:57:35.344Z,3.90
2017-04-17T09:58:34.521Z,3.90
2017-04-17T09:59:33.693Z,3.90
2017-04-17T10:00:32.925Z,3.90
2017-04-17T10:01:32.113Z,3.90
2017-04-17T10:02:31.300Z,3.90
2017-04-17T10:03:30.463Z,3.90
2017-04-17T10:04:29.631Z,3.80
2017-04-17T10:05:28.805Z,3.80
2017-04-17T10:06:28.004Z,3.80
2017-04-17T10:07:27.173Z,3.80
2017-04-17T10:08:26.333Z,3.80
2017-04-17T10:09:25.491Z,3.80
2017-04-17T10:10:24.659Z,3.80
2017-04-17T10:11:23.836Z,3.80
2017-04-17T10:12:23.033Z,3.70
2017-04-17T10:13:22.216Z,3.80
2017-04-17T10:14:21.421Z,3.70
2017-04-17T10:15:20.600Z,3.70
2017-04-17T10:16:19.769Z,3.80
2017-04-17T10:17:18.973Z,3.80
2017-04-17T10:18:18.181Z,3.80
2017-04-17T10:19:18.102Z,3.90
2017-04-17T10:20:17.295Z,4.00
2017-04-17T10:21:16.476Z,4.10
2017-04-17T10:22:15.644Z,4.20
2017-04-17T10:23:14.841Z,4.30
2017-04-17T10:24:14.758Z,4.40
2017-04-17T10:25:13.932Z,4.50
2017-04-17T10:26:13.131Z,4.60
2017-04-17T10:27:12.325Z,4.70
2017-04-17T10:28:11.509Z,4.80
2017-04-17T10:29:10.705Z,4.80
2017-04-17T10:30:09.884Z,4.90
2017-04-17T10:31:09.089Z,5.00
2017-04-17T10:32:08.269Z,5.10
2017-04-17T10:33:07.468Z,5.20
2017-04-17T10:34:06.645Z,5.20
2017-04-17T10:35:05.868Z,5.30
2017-04-17T10:36:05.028Z,5.30
2017-04-17T10:37:04.199Z,5.20
2017-04-17T10:38:03.378Z,5.20
2017-04-17T10:39:03.384Z,5.20
2017-04-17T10:40:03.327Z,5.30
2017-04-17T10:41:02.533Z,5.40
2017-04-17T10:42:01.704Z,5.50
2017-04-17T10:43:00.872Z,5.70
2017-04-17T10:44:00.048Z,5.80
2017-04-17T10:44:59.225Z,5.80
2017-04-17T10:45:58.404Z,5.80
2017-04-17T10:46:57.613Z,5.90
2017-04-17T10:47:56.780Z,6.00
2017-04-17T10:48:56.703Z,6.20
2017-04-17T10:49:55.877Z,6.30
2017-04-17T10:50:55.084Z,6.20
2017-04-17T10:51:54.258Z,6.40
2017-04-17T10:52:53.470Z,6.60
2017-04-17T10:53:52.669Z,6.70
2017-04-17T10:54:51.839Z,6.80
2017-04-17T10:55:51.046Z,6.80
2017-04-17T10:56:50.216Z,6.80
2017-04-17T10:57:49.388Z,6.80
2017-04-17T10:58:48.599Z,6.80
2017-04-17T10:59:47.776Z,6.90
2017-04-17T11:00:46.960Z,6.80
2017-04-17T11:01:46.128Z,6.80
2017-04-17T11:02:45.289Z,6.80
2017-04-17T11:03:45.206Z,6.80
2017-04-17T11:04:44.428Z,6.70
2017-04-17T11:05:43.613Z,6.70
2017-04-17T11:06:42.778Z,6.70
2017-04-17T11:07:41.954Z,6.70
2017-04-17T11:08:41.141Z,6.80
2017-04-17T11:09:40.345Z,7.00
2017-04-17T11:10:39.550Z,7.30
2017-04-17T11:11:38.728Z,7.40
2017-04-17T11:12:37.900Z,7.60
2017-04-17T11:13:37.081Z,7.70
2017-04-17T11:14:36.261Z,7.70
2017-04-17T11:15:35.432Z,7.80
2017-04-17T11:16:34.653Z,7.80
2017-04-17T11:17:33.869Z,7.80
2017-04-17T11:18:33.040Z,7.80
2017-04-17T11:19:32.995Z,7.70
2017-04-17T11:20:32.177Z,7.60
2017-04-17T11:21:31.356Z,7.60
2017-04-17T11:22:30.560Z,7.50
2017-04-17T11:23:29.725Z,7.50
2017-04-17T11:24:28.915Z,7.50
2017-04-17T11:25:28.096Z,7.50
2017-04-17T11:26:27.321Z,7.40
2017-04-17T11:27:26.474Z,7.40
2017-04-17T11:28:25.709Z,7.40
2017-04-17T11:29:24.860Z,7.40
2017-04-17T11:30:24.012Z,7.30
2017-04-17T11:31:23.914Z,7.40
2017-04-17T11:32:23.807Z,7.40
2017-04-17T11:33:22.955Z,7.40
2017-04-17T11:34:22.148Z,7.40
2017-04-17T11:35:21.296Z,7.50
2017-04-17T11:36:21.192Z,7.50
2017-04-17T11:37:20.341Z,7.50
2017-04-17T11:38:19.499Z,7.50
2017-04-17T11:39:18.716Z,7.50
2017-04-17T11:40:17.914Z,7.40
2017-04-17T11:41:17.080Z,7.20
2017-04-17T11:42:16.235Z,7.20
2017-04-17T11:43:16.147Z,7.10
2017-04-17T11:44:15.335Z,7.10
2017-04-17T11:45:14.486Z,7.00
2017-04-17T11:46:13.879Z,6.90
2017-04-17T11:47:13.048Z,6.80
2017-04-17T11:48:12.198Z,6.90
2017-04-17T11:49:11.345Z,6.90
2017-04-17T11:50:11.260Z,7.10
2017-04-17T11:51:10.420Z,7.30
2017-04-17T11:52:09.606Z,7.40
2017-04-17T11:53:08.760Z,7.50
2017-04-17T11:54:08.673Z,7.70
2017-04-17T11:55:07.893Z,7.90
2017-04-17T11:56:07.052Z,8.00
2017-04-17T11:57:06.204Z,8.20
2017-04-17T11:58:05.431Z,8.30
2017-04-17T11:59:04.593Z,8.50
2017-04-17T12:00:03.796Z,8.70
2017-04-17T12:01:03.791Z,8.90
2017-04-17T12:02:03.709Z,9.10
2017-04-17T12:03:02.861Z,9.40
2017-04-17T12:04:02.069Z,9.50
2017-04-17T12:05:01.231Z,9.50
2017-04-17T12:06:00.393Z,9.70
2017-04-17T12:06:59.555Z,9.80
2017-04-17T12:07:58.720Z,10.10
2017-04-17T12:08:57.885Z,10.10
2017-04-17T12:09:57.074Z,10.20
2017-04-17T12:10:56.252Z,10.30
2017-04-17T12:11:55.450Z,10.40
2017-04-17T12:12:54.636Z,10.30
2017-04-17T12:13:53.792Z,10.50
2017-04-17T12:14:52.951Z,10.40
2017-04-17T12:15:52.128Z,10.40
2017-04-17T12:16:51.279Z,10.30
2017-04-17T12:17:50.437Z,10.50
2017-04-17T12:18:49.626Z,10.70
2017-04-17T12:19:48.783Z,10.80
2017-04-17T12:20:47.943Z,10.80
2017-04-17T12:21:47.140Z,11.00
2017-04-17T12:22:46.556Z,11.10
2017-04-17T12:23:45.736Z,11.40
2017-04-17T12:24:44.906Z,11.40
2017-04-17T12:25:44.132Z,11.50
2017-04-17T12:26:43.325Z,11.50
2017-04-17T12:27:42.536Z,11.90
2017-04-17T12:28:41.712Z,11.90
2017-04-17T12:29:40.902Z,11.90
2017-04-17T12:30:40.087Z,11.90
2017-04-17T12:31:39.262Z,11.80
2017-04-17T12:32:38.436Z,11.90
2017-04-17T12:33:37.645Z,11.70
2017-04-17T12:34:36.816Z,11.60
2017-04-17T12:35:36.009Z,11.50
2017-04-17T12:36:35.192Z,11.30
2017-04-17T12:37:34.385Z,11.10
2017-04-17T12:38:33.611Z,11.00
2017-04-17T12:39:32.780Z,10.80
2017-04-17T12:40:31.969Z,10.50
2017-04-17T12:41:31.153Z,10.30
2017-04-17T12:42:30.357Z,10.20
2017-04-17T12:43:29.532Z,10.10
2017-04-17T12:44:28.796Z,9.90
2017-04-17T12:45:27.965Z,9.80
2017-04-17T12:46:27.146Z,9.50
2017-04-17T12:47:26.348Z,9.30
2017-04-17T12:48:26.272Z,9.20
2017-04-17T12:49:25.438Z,9.10
2017-04-17T12:50:24.645Z,9.00
2017-04-17T12:51:23.815Z,9.00
2017-04-17T12:52:22.988Z,8.90
2017-04-17T12:53:22.164Z,8.90
2017-04-17T12:54:21.348Z,8.90
2017-04-17T12:55:20.532Z,8.90
2017-04-17T12:56:20.176Z,9.00
2017-04-17T12:57:19.360Z,9.00
2017-04-17T12:58:18.541Z,9.00
2017-04-17T12:59:17.720Z,9.10
2017-04-17T13:00:16.918Z,9.00
2017-04-17T13:01:16.092Z,9.00
2017-04-17T13:02:15.278Z,9.20
2017-04-17T13:03:14.467Z,9.30
2017-04-17T13:04:13.637Z,9.40
2017-04-17T13:05:12.827Z,9.40
2017-04-17T13:06:12.043Z,9.50
2017-04-17T13:07:11.212Z,9.50
2017-04-17T13:08:10.413Z,9.50
2017-04-17T13:09:09.632Z,9.70
2017-04-17T13:10:09.210Z,9.90